createdAt,value
2023-02-11T00:01:19.332Z,27.90
2023-02-11T00:03:47.164Z,42.80
2023-02-11T00:06:14.813Z,49.40
2023-02-11T00:08:42.584Z,31.60
2023-02-11T00:11:14.945Z,47.40
2023-02-11T00:13:43.886Z,40.20
2023-02-11T00:16:14.885Z,32.70
2023-02-11T00:18:42.702Z,43.00
2023-02-11T00:21:15.835Z,35.00
2023-02-11T00:23:44.490Z,44.40
2023-02-11T00:26:14.440Z,31.30
2023-02-11T00:28:42.322Z,35.80
2023-02-11T00:31:10.037Z,49.90
2023-02-11T00:33:37.907Z,46.40
2023-02-11T00:36:08.354Z,25.50
2023-02-11T00:38:36.047Z,37.30
2023-02-11T00:41:03.989Z,49.80
2023-02-11T00:43:31.897Z,39.20
2023-02-11T00:45:59.784Z,42.00
2023-02-11T00:48:27.647Z,39.10
2023-02-11T00:50:55.386Z,48.00
2023-02-11T00:53:23.014Z,49.60
2023-02-11T00:55:50.962Z,44.30
2023-02-11T00:58:18.729Z,44.80
2023-02-11T01:00:46.389Z,37.40
2023-02-11T01:03:14.145Z,30.20
2023-02-11T01:05:41.876Z,39.80
2023-02-11T01:08:09.513Z,46.70
2023-02-11T01:10:37.245Z,32.60
2023-02-11T01:13:05.255Z,46.70
2023-02-11T01:15:33.444Z,36.70
2023-02-11T01:18:01.053Z,42.60
2023-02-11T01:20:29.296Z,32.20
2023-02-11T01:22:56.884Z,41.80
2023-02-11T01:25:24.553Z,31.20
2023-02-11T01:27:52.233Z,35.60
2023-02-11T01:30:19.877Z,37.20
2023-02-11T01:32:47.538Z,30.10
2023-02-11T01:35:15.367Z,32.40
2023-02-11T01:37:43.302Z,31.90
2023-02-11T01:40:14.742Z,48.50
2023-02-11T01:42:43.548Z,33.90
2023-02-11T01:45:39.001Z,32.50
2023-02-11T01:48:08.913Z,38.70
2023-02-11T01:50:40.503Z,32.50
2023-02-11T01:53:10.602Z,33.70
2023-02-11T01:55:38.189Z,29.90
2023-02-11T01:58:06.543Z,47.00
2023-02-11T02:00:37.732Z,36.50
2023-02-11T02:03:11.179Z,29.10
2023-02-11T02:06:06.483Z,34.00
2023-02-11T02:11:11.707Z,36.90
2023-02-11T02:13:39.357Z,31.10
2023-02-11T02:16:13.324Z,29.70
2023-02-11T02:19:00.234Z,38.50
2023-02-11T02:21:49.218Z,32.80
2023-02-11T02:24:44.647Z,34.70
2023-02-11T02:30:03.694Z,40.90
2023-02-11T02:32:34.257Z,34.80
2023-02-11T02:35:01.911Z,41.30
2023-02-11T02:37:29.618Z,29.00
2023-02-11T02:40:02.686Z,36.30
2023-02-11T02:42:32.180Z,37.40
2023-02-11T02:44:59.787Z,34.30
2023-02-11T02:47:27.509Z,38.50
2023-02-11T02:49:55.083Z,30.80
2023-02-11T02:52:44.889Z,31.40
2023-02-11T02:55:41.574Z,21.60
2023-02-11T02:58:25.802Z,35.60
2023-02-11T03:01:05.705Z,34.40
2023-02-11T03:03:56.438Z,29.90
2023-02-11T03:06:34.186Z,34.40
2023-02-11T03:09:12.812Z,32.90
2023-02-11T03:11:40.868Z,25.70
2023-02-11T03:14:11.303Z,30.20
2023-02-11T03:19:11.840Z,35.10
2023-02-11T03:21:42.189Z,37.50
2023-02-11T03:24:17.233Z,29.00
2023-02-11T03:26:48.675Z,30.10
2023-02-11T03:29:35.423Z,27.80
2023-02-11T03:32:22.938Z,38.10
2023-02-11T03:35:01.745Z,27.40
2023-02-11T03:37:32.425Z,36.40
2023-02-11T03:42:56.899Z,21.40
2023-02-11T03:45:26.396Z,24.70
2023-02-11T03:48:29.805Z,25.50
2023-02-11T03:51:01.154Z,29.70
2023-02-11T03:53:28.769Z,34.50
2023-02-11T03:55:59.945Z,26.70
2023-02-11T03:58:27.809Z,29.60
2023-02-11T04:00:55.463Z,31.90
2023-02-11T04:03:23.121Z,31.70
2023-02-11T04:05:50.970Z,29.50
2023-02-11T04:08:18.704Z,35.10
2023-02-11T04:10:46.754Z,33.30
2023-02-11T04:13:14.655Z,33.70
2023-02-11T04:15:42.371Z,31.40
2023-02-11T04:18:10.139Z,41.70
2023-02-11T04:20:37.711Z,30.20
2023-02-11T04:23:05.479Z,34.60
2023-02-11T04:25:33.050Z,25.40
2023-02-11T04:28:00.645Z,34.40
2023-02-11T04:30:28.414Z,37.80
2023-02-11T04:32:56.021Z,28.90
2023-02-11T04:35:23.679Z,38.30
2023-02-11T04:37:51.577Z,27.10
2023-02-11T04:40:19.209Z,23.80
2023-02-11T04:42:46.849Z,30.20
2023-02-11T04:45:14.634Z,27.50
2023-02-11T04:47:42.233Z,30.10
2023-02-11T04:50:10.275Z,29.70
2023-02-11T04:52:37.807Z,35.10
2023-02-11T04:55:05.704Z,23.80
2023-02-11T04:57:33.234Z,24.00
2023-02-11T05:00:00.996Z,34.10
2023-02-11T05:02:28.745Z,27.20
2023-02-11T05:04:56.371Z,24.90
2023-02-11T05:07:24.244Z,31.20
2023-02-11T05:09:51.787Z,27.70
2023-02-11T05:12:19.637Z,24.80
2023-02-11T05:14:47.289Z,21.70
2023-02-11T05:17:15.066Z,29.60
2023-02-11T05:19:43.100Z,23.80
2023-02-11T05:22:10.615Z,26.40
2023-02-11T05:24:38.445Z,30.40
2023-02-11T05:27:06.140Z,21.10
2023-02-11T05:29:33.802Z,30.50
2023-02-11T05:32:01.387Z,18.20
2023-02-11T05:34:29.173Z,22.50
2023-02-11T05:36:56.995Z,22.90
2023-02-11T05:39:24.707Z,28.80
2023-02-11T05:41:52.493Z,20.90
2023-02-11T05:44:20.281Z,27.90
2023-02-11T05:46:47.846Z,21.40
2023-02-11T05:49:17.000Z,29.90
2023-02-11T05:51:44.574Z,26.30
2023-02-11T05:54:12.430Z,22.20
2023-02-11T05:56:39.991Z,22.10
2023-02-11T05:59:07.827Z,23.20
2023-02-11T06:01:35.448Z,22.70
2023-02-11T06:04:03.230Z,24.40
2023-02-11T06:06:31.213Z,25.10
2023-02-11T06:08:58.857Z,23.20
2023-02-11T06:11:26.443Z,27.20
2023-02-11T06:13:54.054Z,27.20
2023-02-11T06:16:21.822Z,22.20
2023-02-11T06:18:49.397Z,23.50
2023-02-11T06:21:16.992Z,26.70
2023-02-11T06:23:44.624Z,25.30
2023-02-11T06:26:19.062Z,14.80
2023-02-11T06:28:47.170Z,30.30
2023-02-11T06:31:15.218Z,22.10
2023-02-11T06:33:43.190Z,23.80
2023-02-11T06:36:17.085Z,25.60
2023-02-11T06:38:45.621Z,25.80
2023-02-11T06:41:15.770Z,26.00
2023-02-11T06:43:43.730Z,23.40
2023-02-11T06:46:12.424Z,23.70
2023-02-11T06:48:41.648Z,26.20
2023-02-11T06:51:12.407Z,20.10
2023-02-11T06:53:47.516Z,24.20
2023-02-11T06:56:18.797Z,33.20
2023-02-11T06:58:46.726Z,34.40
2023-02-11T07:01:16.434Z,23.20
2023-02-11T07:03:45.393Z,21.50
2023-02-11T07:06:16.451Z,23.70
2023-02-11T07:08:44.837Z,28.00
2023-02-11T07:11:18.059Z,21.40
2023-02-11T07:13:47.115Z,27.20
2023-02-11T07:16:16.317Z,25.50
2023-02-11T07:18:45.557Z,26.80
2023-02-11T07:21:16.523Z,26.80
2023-02-11T07:23:44.600Z,22.00
2023-02-11T07:26:15.425Z,32.60
2023-02-11T07:28:43.662Z,19.90
2023-02-11T07:31:14.731Z,19.70
2023-02-11T07:33:43.647Z,31.10
2023-02-11T07:36:13.261Z,33.00
2023-02-11T07:38:41.421Z,26.50
2023-02-11T07:41:12.186Z,29.50
2023-02-11T07:43:41.000Z,22.50
2023-02-11T07:46:13.739Z,25.70
2023-02-11T07:48:41.443Z,30.00
2023-02-11T07:51:12.410Z,32.90
2023-02-11T07:53:40.652Z,22.30
2023-02-11T07:56:09.697Z,15.90
2023-02-11T07:58:37.394Z,21.40
2023-02-11T08:01:08.240Z,26.10
2023-02-11T08:03:36.817Z,31.50
2023-02-11T08:06:12.449Z,23.00
2023-02-11T08:08:40.938Z,27.90
2023-02-11T08:11:08.442Z,29.10
2023-02-11T08:13:36.173Z,26.60
2023-02-11T08:16:05.166Z,29.10
2023-02-11T08:18:33.733Z,28.20
2023-02-11T08:21:06.370Z,24.10
2023-02-11T08:23:38.230Z,28.00
2023-02-11T08:26:09.029Z,20.40
2023-02-11T08:28:39.310Z,21.40
2023-02-11T08:31:09.070Z,20.60
2023-02-11T08:33:37.325Z,22.00
2023-02-11T08:36:09.785Z,27.70
2023-02-11T08:38:37.882Z,36.70
2023-02-11T08:41:05.589Z,26.00
2023-02-11T08:43:33.597Z,20.50
2023-02-11T08:46:02.611Z,34.50
2023-02-11T08:48:30.579Z,21.10
2023-02-11T08:50:58.324Z,27.60
2023-02-11T08:53:26.795Z,25.20
2023-02-11T08:55:55.548Z,18.30
2023-02-11T08:58:23.435Z,25.30
2023-02-11T09:00:51.455Z,25.00
2023-02-11T09:03:19.515Z,28.70
2023-02-11T09:05:49.397Z,25.90
2023-02-11T09:08:17.398Z,29.00
2023-02-11T09:10:45.603Z,35.20
2023-02-11T09:13:13.484Z,33.00
2023-02-11T09:15:44.884Z,23.40
2023-02-11T09:18:13.698Z,25.70
2023-02-11T09:20:41.893Z,24.00
2023-02-11T09:23:09.890Z,31.20
2023-02-11T09:25:40.409Z,23.20
2023-02-11T09:28:08.670Z,28.80
2023-02-11T09:30:37.703Z,25.70
2023-02-11T09:33:05.360Z,27.50
2023-02-11T09:35:33.766Z,21.60
2023-02-11T09:38:01.427Z,22.80
2023-02-11T09:40:29.140Z,23.20
2023-02-11T09:43:19.491Z,21.10
2023-02-11T09:45:48.088Z,34.60
2023-02-11T09:48:20.250Z,28.30
2023-02-11T09:50:54.744Z,28.10
2023-02-11T09:53:32.700Z,25.30
2023-02-11T09:56:02.833Z,24.30
2023-02-11T10:01:27.722Z,29.90
2023-02-11T10:04:14.437Z,29.30
2023-02-11T10:06:47.175Z,30.30
2023-02-11T10:09:36.410Z,32.80
2023-02-11T10:12:28.604Z,31.60
2023-02-11T10:15:13.594Z,24.60
2023-02-11T10:17:59.789Z,28.80
2023-02-11T10:20:38.784Z,29.20
2023-02-11T10:23:28.273Z,28.50
2023-02-11T10:25:58.634Z,19.20
2023-02-11T10:28:36.745Z,24.90
2023-02-11T10:31:11.028Z,28.90
2023-02-11T10:33:44.699Z,30.30
2023-02-11T10:36:15.313Z,26.30
2023-02-11T10:38:44.617Z,26.20
2023-02-11T10:41:19.398Z,27.50
2023-02-11T10:43:47.120Z,30.70
2023-02-11T10:46:19.683Z,31.00
2023-02-11T10:48:52.526Z,26.50
2023-02-11T10:51:24.218Z,30.60
2023-02-11T10:54:03.789Z,28.90
2023-02-11T10:56:37.994Z,30.00
2023-02-11T10:59:15.257Z,24.50
2023-02-11T11:01:50.997Z,25.70
2023-02-11T11:04:30.653Z,26.50
2023-02-11T11:07:09.901Z,27.20
2023-02-11T11:10:05.163Z,27.30
2023-02-11T11:12:44.600Z,26.60
2023-02-11T11:15:20.952Z,31.00
2023-02-11T11:17:50.284Z,29.30
2023-02-11T11:20:25.617Z,25.20
2023-02-11T11:23:18.552Z,32.50
2023-02-11T11:26:03.576Z,31.10
2023-02-11T11:28:37.040Z,23.00
2023-02-11T11:31:12.249Z,23.40
2023-02-11T11:33:42.937Z,25.90
2023-02-11T11:36:15.414Z,32.80
2023-02-11T11:38:48.965Z,20.80
2023-02-11T11:41:16.524Z,35.90
2023-02-11T11:44:24.181Z,27.60
2023-02-11T11:47:25.148Z,24.90
2023-02-11T11:50:03.466Z,32.20
2023-02-11T11:52:48.246Z,35.40
2023-02-11T11:55:23.006Z,28.90
2023-02-11T11:57:51.337Z,27.20
2023-02-11T12:00:31.678Z,26.60
2023-02-11T12:03:02.300Z,32.00
2023-02-11T12:05:42.090Z,29.20
2023-02-11T12:08:22.434Z,30.90
2023-02-11T12:11:01.923Z,30.50
2023-02-11T12:13:32.680Z,33.20
2023-02-11T12:16:13.915Z,33.90
2023-02-11T12:18:56.544Z,41.10
2023-02-11T12:21:34.869Z,34.90
2023-02-11T12:24:37.376Z,28.20
2023-02-11T12:27:29.387Z,24.60
2023-02-11T12:30:26.275Z,27.90
2023-02-11T12:33:00.335Z,42.90
2023-02-11T12:35:56.357Z,26.10
2023-02-11T12:38:48.303Z,37.40
2023-02-11T12:41:37.496Z,33.50
2023-02-11T12:44:10.768Z,38.00
2023-02-11T12:47:23.551Z,42.90
2023-02-11T12:50:17.139Z,27.00
2023-02-11T12:53:10.282Z,26.30
2023-02-11T12:55:43.197Z,30.90
2023-02-11T12:58:18.407Z,39.30
2023-02-11T13:00:53.235Z,31.00
2023-02-11T13:03:28.951Z,34.50
2023-02-11T13:06:05.518Z,35.40
2023-02-11T13:11:14.324Z,33.10
2023-02-11T13:13:45.313Z,33.60
2023-02-11T13:16:33.246Z,33.20
2023-02-11T13:19:14.618Z,34.70
2023-02-11T13:22:10.625Z,33.10
2023-02-11T13:24:50.745Z,35.80
2023-02-11T13:27:54.968Z,34.50
2023-02-11T13:30:27.676Z,36.70
2023-02-11T13:32:55.198Z,37.80
2023-02-11T13:35:31.491Z,40.90
2023-02-11T13:38:02.075Z,36.90
2023-02-11T13:40:36.646Z,25.60
2023-02-11T13:43:07.171Z,30.30
2023-02-11T13:45:45.178Z,35.20
2023-02-11T13:48:22.714Z,31.90
2023-02-11T13:50:54.481Z,32.60
2023-02-11T13:53:23.698Z,32.60
2023-02-11T13:56:04.092Z,26.30
2023-02-11T13:58:31.778Z,33.10
2023-02-11T14:00:59.606Z,38.70
2023-02-11T14:03:27.416Z,28.90
2023-02-11T14:06:10.639Z,31.80
2023-02-11T14:09:10.195Z,28.80
2023-02-11T14:11:40.579Z,33.80
2023-02-11T14:14:27.652Z,35.20
2023-02-11T14:16:58.567Z,27.80
2023-02-11T14:19:45.941Z,36.00
2023-02-11T14:22:25.435Z,26.30
2023-02-11T14:25:05.040Z,31.10
2023-02-11T14:27:44.329Z,47.80
2023-02-11T14:30:34.233Z,33.90
2023-02-11T14:33:34.596Z,30.70
2023-02-11T14:36:28.604Z,36.40
2023-02-11T14:39:13.539Z,37.30
2023-02-11T14:41:44.096Z,30.90
2023-02-11T14:44:24.300Z,36.30
2023-02-11T14:46:53.762Z,23.50
2023-02-11T14:49:27.406Z,39.50
2023-02-11T14:52:04.435Z,41.30
2023-02-11T14:54:33.801Z,36.20
2023-02-11T14:57:27.740Z,42.10
2023-02-11T15:00:01.285Z,47.30
2023-02-11T15:02:34.501Z,43.00
2023-02-11T15:05:17.879Z,41.70
2023-02-11T15:07:48.623Z,46.30
2023-02-11T15:10:43.813Z,47.30
2023-02-11T15:13:23.396Z,47.10
2023-02-11T15:15:55.640Z,42.30
2023-02-11T15:18:28.879Z,49.30
2023-02-11T15:20:56.654Z,56.70
2023-02-11T15:23:29.797Z,51.60
2023-02-11T15:25:57.740Z,33.30
2023-02-11T15:28:29.085Z,35.10
2023-02-11T15:30:57.989Z,47.00
2023-02-11T15:33:26.067Z,32.60
2023-02-11T15:35:53.913Z,47.00
2023-02-11T15:38:21.776Z,33.60
2023-02-11T15:40:59.348Z,58.10
2023-02-11T15:43:46.811Z,44.70
2023-02-11T15:46:20.740Z,52.00
2023-02-11T15:48:53.895Z,58.90
2023-02-11T15:51:31.679Z,52.30
2023-02-11T15:54:02.197Z,44.20
2023-02-11T15:59:17.232Z,53.40
2023-02-11T16:01:45.903Z,46.10
2023-02-11T16:04:20.426Z,59.50
2023-02-11T16:06:48.861Z,41.40
2023-02-11T16:09:16.642Z,46.00
2023-02-11T16:11:48.261Z,60.00
2023-02-11T16:14:28.418Z,40.80
2023-02-11T16:17:02.347Z,40.20
2023-02-11T16:19:31.579Z,43.00
2023-02-11T16:22:06.426Z,50.10
2023-02-11T16:24:36.984Z,65.60
2023-02-11T16:27:18.216Z,59.60
2023-02-11T16:29:48.481Z,50.80
2023-02-11T16:32:24.646Z,63.00
2023-02-11T16:34:53.632Z,59.50
2023-02-11T16:37:21.350Z,34.30
2023-02-11T16:39:49.150Z,68.30
2023-02-11T16:42:16.870Z,42.40
2023-02-11T16:44:44.651Z,47.50
2023-02-11T16:47:23.782Z,53.20
2023-02-11T16:49:51.816Z,53.00
2023-02-11T16:52:21.759Z,68.30
2023-02-11T16:54:49.679Z,57.00
2023-02-11T16:57:23.334Z,65.10
2023-02-11T16:59:52.075Z,43.60
2023-02-11T17:02:26.967Z,55.50
2023-02-11T17:04:56.117Z,45.70
2023-02-11T17:07:23.920Z,46.40
2023-02-11T17:09:52.006Z,43.40
2023-02-11T17:12:20.786Z,58.00
2023-02-11T17:14:48.594Z,41.30
2023-02-11T17:17:16.596Z,64.90
2023-02-11T17:19:44.548Z,43.40
2023-02-11T17:22:12.312Z,41.50
2023-02-11T17:24:40.842Z,43.00
2023-02-11T17:27:11.170Z,48.30
2023-02-11T17:29:38.769Z,36.20
2023-02-11T17:32:06.856Z,51.20
2023-02-11T17:34:34.622Z,58.40
2023-02-11T17:37:02.246Z,63.20
2023-02-11T17:39:30.657Z,45.10
2023-02-11T17:41:58.840Z,53.60
2023-02-11T17:44:26.755Z,49.60
2023-02-11T17:46:54.720Z,61.00
2023-02-11T17:49:22.635Z,45.20
2023-02-11T17:51:50.312Z,58.10
2023-02-11T17:54:19.316Z,48.20
2023-02-11T17:56:49.335Z,41.30
2023-02-11T17:59:17.999Z,61.90
2023-02-11T18:01:46.058Z,55.90
2023-02-11T18:04:17.812Z,53.90
2023-02-11T18:06:46.185Z,56.40
2023-02-11T18:09:13.881Z,41.80
2023-02-11T18:11:41.597Z,54.10
2023-02-11T18:14:10.442Z,55.20
2023-02-11T18:16:38.737Z,49.00
2023-02-11T18:19:07.451Z,55.80
2023-02-11T18:21:35.282Z,34.70
2023-02-11T18:24:06.714Z,49.40
2023-02-11T18:26:35.502Z,52.90
2023-02-11T18:29:04.500Z,52.60
2023-02-11T18:31:32.677Z,65.70
2023-02-11T18:34:00.528Z,51.80
2023-02-11T18:36:28.389Z,38.20
2023-02-11T18:38:56.121Z,59.90
2023-02-11T18:41:23.741Z,58.80
2023-02-11T18:43:51.402Z,56.50
2023-02-11T18:46:19.682Z,52.00
2023-02-11T18:48:47.493Z,51.20
2023-02-11T18:51:18.105Z,51.10
2023-02-11T18:53:46.494Z,40.60
2023-02-11T18:56:19.806Z,53.90
2023-02-11T18:58:48.462Z,71.20
2023-02-11T19:01:22.232Z,72.20
2023-02-11T19:03:50.466Z,42.50
2023-02-11T19:06:21.314Z,46.50
2023-02-11T19:08:49.045Z,59.30
2023-02-11T19:11:17.146Z,51.00
2023-02-11T19:13:45.110Z,49.00
2023-02-11T19:16:12.846Z,61.40
2023-02-11T19:18:40.539Z,50.00
2023-02-11T19:21:09.834Z,56.90
2023-02-11T19:23:38.363Z,50.60
2023-02-11T19:26:06.275Z,57.90
2023-02-11T19:28:35.006Z,52.50
2023-02-11T19:31:08.569Z,61.70
2023-02-11T19:33:36.944Z,51.00
2023-02-11T19:36:06.816Z,63.90
2023-02-11T19:38:36.078Z,67.30
2023-02-11T19:41:04.117Z,61.20
2023-02-11T19:43:32.049Z,68.80
2023-02-11T19:46:02.514Z,57.70
2023-02-11T19:48:30.380Z,73.70
2023-02-11T19:50:58.287Z,60.10
2023-02-11T19:53:26.398Z,70.10
2023-02-11T19:55:54.695Z,54.60
2023-02-11T19:58:22.270Z,47.80
2023-02-11T20:00:50.063Z,55.20
2023-02-11T20:03:17.720Z,45.20
2023-02-11T20:05:45.426Z,61.90
2023-02-11T20:08:14.381Z,50.40
2023-02-11T20:10:42.048Z,50.70
2023-02-11T20:13:09.868Z,60.10
2023-02-11T20:15:37.657Z,52.70
2023-02-11T20:18:05.600Z,57.50
2023-02-11T20:20:33.402Z,75.20
2023-02-11T20:23:01.203Z,61.60
2023-02-11T20:25:29.229Z,56.90
2023-02-11T20:27:57.048Z,56.80
2023-02-11T20:30:25.033Z,58.80
2023-02-11T20:32:53.432Z,45.40
2023-02-11T20:35:21.057Z,82.80
2023-02-11T20:37:48.711Z,74.90
2023-02-11T20:40:16.617Z,58.10
2023-02-11T20:42:44.404Z,55.90
2023-02-11T20:45:15.141Z,58.50
2023-02-11T20:47:42.965Z,45.80
2023-02-11T20:50:12.285Z,78.40
2023-02-11T20:52:39.986Z,76.60
2023-02-11T20:55:07.994Z,54.30
2023-02-11T20:57:37.341Z,66.40
2023-02-11T21:00:06.075Z,64.90
2023-02-11T21:02:33.996Z,56.90
2023-02-11T21:05:01.647Z,59.00
2023-02-11T21:07:29.291Z,60.70
2023-02-11T21:09:57.130Z,55.50
2023-02-11T21:12:24.785Z,66.50
2023-02-11T21:14:52.433Z,49.80
2023-02-11T21:17:20.103Z,57.80
2023-02-11T21:19:47.779Z,61.40
2023-02-11T21:22:15.382Z,57.40
2023-02-11T21:24:42.934Z,76.40
2023-02-11T21:27:10.624Z,55.00
2023-02-11T21:29:52.794Z,49.30
2023-02-11T21:32:21.507Z,49.50
2023-02-11T21:34:49.096Z,59.40
2023-02-11T21:37:16.882Z,32.80
2023-02-11T21:39:44.615Z,56.10
2023-02-11T21:42:12.321Z,54.70
2023-02-11T21:44:39.932Z,45.80
2023-02-11T21:47:07.477Z,34.60
2023-02-11T21:49:35.070Z,45.90
2023-02-11T21:52:02.741Z,43.70
2023-02-11T21:54:30.433Z,28.60
2023-02-11T21:56:59.621Z,49.50
2023-02-11T21:59:27.244Z,32.20
2023-02-11T22:01:55.193Z,41.80
2023-02-11T22:04:22.889Z,43.00
2023-02-11T22:06:50.617Z,37.80
2023-02-11T22:09:18.247Z,36.70
2023-02-11T22:11:45.885Z,40.90
2023-02-11T22:14:13.540Z,39.10
2023-02-11T22:16:41.278Z,37.90
2023-02-11T22:19:09.249Z,38.90
2023-02-11T22:21:36.892Z,43.10
2023-02-11T22:24:04.953Z,40.00
2023-02-11T22:26:32.950Z,41.20
2023-02-11T22:29:00.672Z,31.80
2023-02-11T22:31:31.478Z,44.30
2023-02-11T22:34:00.253Z,50.50
2023-02-11T22:36:31.046Z,49.80
2023-02-11T22:39:06.722Z,40.50
2023-02-11T22:41:34.860Z,36.70
2023-02-11T22:44:02.544Z,48.60
2023-02-11T22:46:30.402Z,40.30
2023-02-11T22:48:58.391Z,31.60
2023-02-11T22:51:29.028Z,46.00
2023-02-11T22:54:02.468Z,38.40
2023-02-11T22:56:32.091Z,45.30
2023-02-11T22:59:05.216Z,43.10
2023-02-11T23:01:33.632Z,49.70
2023-02-11T23:04:04.229Z,33.60
2023-02-11T23:06:32.293Z,42.90
2023-02-11T23:09:00.147Z,44.60
2023-02-11T23:11:30.134Z,45.20
2023-02-11T23:13:58.543Z,41.90
2023-02-11T23:16:31.875Z,48.20
2023-02-11T23:19:01.372Z,44.10
2023-02-11T23:21:32.050Z,46.40
2023-02-11T23:24:03.415Z,36.80
2023-02-11T23:26:31.244Z,46.40
2023-02-11T23:28:59.926Z,41.00
2023-02-11T23:31:31.412Z,38.10
2023-02-11T23:34:00.333Z,35.00
2023-02-11T23:36:28.760Z,34.00
2023-02-11T23:38:56.511Z,31.10
2023-02-11T23:41:24.756Z,34.50
2023-02-11T23:43:55.464Z,31.40
2023-02-11T23:46:25.016Z,31.80
2023-02-11T23:48:53.075Z,30.60
2023-02-11T23:51:21.077Z,34.80
2023-02-11T23:53:48.900Z,37.00
2023-02-11T23:56:20.389Z,30.20
2023-02-11T23:58:51.254Z,31.30
